sensor_id;sensor_type;location;lat;lon;timestamp;P1;durP1;ratioP1;P2;durP2;ratioP2
15412;SDS011;7805;49.554;7.632;2023-06-10T00:00:35;7.87;;;7.27;;
15412;SDS011;7805;49.554;7.632;2023-06-10T00:03:01;8.10;;;7.50;;
15412;SDS011;7805;49.554;7.632;2023-06-10T00:05:27;9.07;;;8.27;;
15412;SDS011;7805;49.554;7.632;2023-06-10T00:07:54;9.20;;;8.23;;
15412;SDS011;7805;49.554;7.632;2023-06-10T00:10:21;8.73;;;8.03;;
15412;SDS011;7805;49.554;7.632;2023-06-10T00:12:47;9.13;;;8.30;;
15412;SDS011;7805;49.554;7.632;2023-06-10T00:15:15;8.03;;;7.30;;
15412;SDS011;7805;49.554;7.632;2023-06-10T00:17:41;9.13;;;8.23;;
15412;SDS011;7805;49.554;7.632;2023-06-10T00:20:08;8.33;;;7.73;;
15412;SDS011;7805;49.554;7.632;2023-06-10T00:22:37;8.50;;;7.87;;
15412;SDS011;7805;49.554;7.632;2023-06-10T00:25:05;8.83;;;7.97;;
15412;SDS011;7805;49.554;7.632;2023-06-10T00:27:31;8.43;;;7.73;;
15412;SDS011;7805;49.554;7.632;2023-06-10T00:30:03;9.60;;;8.13;;
15412;SDS011;7805;49.554;7.632;2023-06-10T00:32:31;8.23;;;7.53;;
15412;SDS011;7805;49.554;7.632;2023-06-10T00:35:00;9.03;;;8.30;;
15412;SDS011;7805;49.554;7.632;2023-06-10T00:37:26;9.07;;;8.27;;
15412;SDS011;7805;49.554;7.632;2023-06-10T00:39:53;8.40;;;7.60;;
15412;SDS011;7805;49.554;7.632;2023-06-10T00:42:19;8.87;;;8.13;;
15412;SDS011;7805;49.554;7.632;2023-06-10T00:44:44;8.63;;;7.70;;
15412;SDS011;7805;49.554;7.632;2023-06-10T00:47:10;9.63;;;8.73;;
15412;SDS011;7805;49.554;7.632;2023-06-10T00:49:36;8.80;;;8.10;;
15412;SDS011;7805;49.554;7.632;2023-06-10T00:52:02;9.07;;;8.17;;
15412;SDS011;7805;49.554;7.632;2023-06-10T00:54:29;9.70;;;8.67;;
15412;SDS011;7805;49.554;7.632;2023-06-10T00:56:55;8.87;;;8.17;;
15412;SDS011;7805;49.554;7.632;2023-06-10T00:59:22;8.60;;;7.83;;
15412;SDS011;7805;49.554;7.632;2023-06-10T01:01:50;8.27;;;7.67;;
15412;SDS011;7805;49.554;7.632;2023-06-10T01:04:17;9.13;;;8.33;;
15412;SDS011;7805;49.554;7.632;2023-06-10T01:09:38;9.07;;;8.37;;
15412;SDS011;7805;49.554;7.632;2023-06-10T01:12:09;9.20;;;8.40;;
15412;SDS011;7805;49.554;7.632;2023-06-10T01:14:54;8.60;;;7.90;;
15412;SDS011;7805;49.554;7.632;2023-06-10T01:17:20;8.93;;;8.17;;
15412;SDS011;7805;49.554;7.632;2023-06-10T01:19:56;9.27;;;8.47;;
15412;SDS011;7805;49.554;7.632;2023-06-10T01:22:25;9.80;;;9.00;;
15412;SDS011;7805;49.554;7.632;2023-06-10T01:24:57;9.53;;;8.63;;
15412;SDS011;7805;49.554;7.632;2023-06-10T01:27:23;10.20;;;9.30;;
15412;SDS011;7805;49.554;7.632;2023-06-10T01:30:04;12.37;;;8.87;;
15412;SDS011;7805;49.554;7.632;2023-06-10T01:32:45;10.07;;;9.17;;
15412;SDS011;7805;49.554;7.632;2023-06-10T01:35:15;10.03;;;9.13;;
15412;SDS011;7805;49.554;7.632;2023-06-10T01:37:42;9.93;;;9.03;;
15412;SDS011;7805;49.554;7.632;2023-06-10T01:40:10;9.70;;;8.80;;
15412;SDS011;7805;49.554;7.632;2023-06-10T01:42:37;9.30;;;8.50;;
15412;SDS011;7805;49.554;7.632;2023-06-10T01:45:03;9.87;;;9.07;;
15412;SDS011;7805;49.554;7.632;2023-06-10T01:47:29;9.53;;;8.67;;
15412;SDS011;7805;49.554;7.632;2023-06-10T01:49:54;9.43;;;8.53;;
15412;SDS011;7805;49.554;7.632;2023-06-10T01:52:20;9.93;;;9.13;;
15412;SDS011;7805;49.554;7.632;2023-06-10T01:54:46;9.37;;;8.47;;
15412;SDS011;7805;49.554;7.632;2023-06-10T01:57:11;8.97;;;8.27;;
15412;SDS011;7805;49.554;7.632;2023-06-10T01:59:37;9.93;;;9.00;;
15412;SDS011;7805;49.554;7.632;2023-06-10T02:02:03;9.70;;;8.90;;
15412;SDS011;7805;49.554;7.632;2023-06-10T02:04:29;9.83;;;9.00;;
15412;SDS011;7805;49.554;7.632;2023-06-10T02:06:55;9.63;;;8.73;;
15412;SDS011;7805;49.554;7.632;2023-06-10T02:09:21;10.30;;;9.50;;
15412;SDS011;7805;49.554;7.632;2023-06-10T02:11:47;9.73;;;8.73;;
15412;SDS011;7805;49.554;7.632;2023-06-10T02:14:13;11.00;;;9.90;;
15412;SDS011;7805;49.554;7.632;2023-06-10T02:16:39;10.20;;;9.30;;
15412;SDS011;7805;49.554;7.632;2023-06-10T02:19:05;10.30;;;9.03;;
15412;SDS011;7805;49.554;7.632;2023-06-10T02:21:32;9.80;;;9.00;;
15412;SDS011;7805;49.554;7.632;2023-06-10T02:23:59;9.90;;;9.03;;
15412;SDS011;7805;49.554;7.632;2023-06-10T02:26:25;9.43;;;8.73;;
15412;SDS011;7805;49.554;7.632;2023-06-10T02:28:51;11.53;;;8.60;;
15412;SDS011;7805;49.554;7.632;2023-06-10T02:31:20;8.97;;;8.23;;
15412;SDS011;7805;49.554;7.632;2023-06-10T02:33:46;9.07;;;8.30;;
15412;SDS011;7805;49.554;7.632;2023-06-10T02:36:11;8.93;;;8.13;;
15412;SDS011;7805;49.554;7.632;2023-06-10T02:38:40;10.47;;;9.53;;
15412;SDS011;7805;49.554;7.632;2023-06-10T02:41:06;9.97;;;9.17;;
15412;SDS011;7805;49.554;7.632;2023-06-10T02:43:31;9.40;;;7.90;;
15412;SDS011;7805;49.554;7.632;2023-06-10T02:45:57;9.03;;;8.23;;
15412;SDS011;7805;49.554;7.632;2023-06-10T02:48:23;10.13;;;9.27;;
15412;SDS011;7805;49.554;7.632;2023-06-10T02:50:49;9.33;;;8.53;;
15412;SDS011;7805;49.554;7.632;2023-06-10T02:53:15;11.57;;;10.47;;
15412;SDS011;7805;49.554;7.632;2023-06-10T02:55:41;11.00;;;9.47;;
15412;SDS011;7805;49.554;7.632;2023-06-10T02:58:07;9.70;;;8.90;;
15412;SDS011;7805;49.554;7.632;2023-06-10T03:00:33;10.10;;;9.20;;
15412;SDS011;7805;49.554;7.632;2023-06-10T03:02:59;10.13;;;9.17;;
15412;SDS011;7805;49.554;7.632;2023-06-10T03:05:28;10.37;;;9.53;;
15412;SDS011;7805;49.554;7.632;2023-06-10T03:07:55;10.50;;;9.70;;
15412;SDS011;7805;49.554;7.632;2023-06-10T03:10:20;9.80;;;9.00;;
15412;SDS011;7805;49.554;7.632;2023-06-10T03:12:46;10.87;;;9.97;;
15412;SDS011;7805;49.554;7.632;2023-06-10T03:15:12;10.37;;;9.43;;
15412;SDS011;7805;49.554;7.632;2023-06-10T03:17:38;10.47;;;9.47;;
15412;SDS011;7805;49.554;7.632;2023-06-10T03:20:03;9.50;;;8.70;;
15412;SDS011;7805;49.554;7.632;2023-06-10T03:22:30;10.23;;;9.33;;
15412;SDS011;7805;49.554;7.632;2023-06-10T03:24:56;10.10;;;9.07;;
15412;SDS011;7805;49.554;7.632;2023-06-10T03:27:22;10.33;;;9.43;;
15412;SDS011;7805;49.554;7.632;2023-06-10T03:29:47;9.27;;;8.37;;
15412;SDS011;7805;49.554;7.632;2023-06-10T03:32:13;11.00;;;10.00;;
15412;SDS011;7805;49.554;7.632;2023-06-10T03:34:39;10.27;;;9.37;;
15412;SDS011;7805;49.554;7.632;2023-06-10T03:37:05;11.50;;;10.07;;
15412;SDS011;7805;49.554;7.632;2023-06-10T03:39:31;10.57;;;9.60;;
15412;SDS011;7805;49.554;7.632;2023-06-10T03:41:57;9.87;;;9.07;;
15412;SDS011;7805;49.554;7.632;2023-06-10T03:44:24;11.30;;;10.20;;
15412;SDS011;7805;49.554;7.632;2023-06-10T03:46:51;10.60;;;9.60;;
15412;SDS011;7805;49.554;7.632;2023-06-10T03:49:16;10.50;;;9.60;;
15412;SDS011;7805;49.554;7.632;2023-06-10T03:51:42;10.60;;;9.70;;
15412;SDS011;7805;49.554;7.632;2023-06-10T03:54:08;10.40;;;9.50;;
15412;SDS011;7805;49.554;7.632;2023-06-10T03:56:34;11.40;;;10.33;;
15412;SDS011;7805;49.554;7.632;2023-06-10T03:59:00;10.80;;;9.83;;
15412;SDS011;7805;49.554;7.632;2023-06-10T04:01:26;10.60;;;9.70;;
15412;SDS011;7805;49.554;7.632;2023-06-10T04:03:52;10.80;;;9.90;;
15412;SDS011;7805;49.554;7.632;2023-06-10T04:06:19;11.60;;;10.40;;
15412;SDS011;7805;49.554;7.632;2023-06-10T04:08:45;10.70;;;9.80;;
15412;SDS011;7805;49.554;7.632;2023-06-10T04:11:10;10.20;;;9.30;;
15412;SDS011;7805;49.554;7.632;2023-06-10T04:13:36;11.00;;;10.00;;
15412;SDS011;7805;49.554;7.632;2023-06-10T04:16:01;10.13;;;9.37;;
15412;SDS011;7805;49.554;7.632;2023-06-10T04:18:27;10.37;;;9.47;;
15412;SDS011;7805;49.554;7.632;2023-06-10T04:20:53;10.73;;;9.63;;
15412;SDS011;7805;49.554;7.632;2023-06-10T04:23:19;11.33;;;10.10;;
15412;SDS011;7805;49.554;7.632;2023-06-10T04:25:44;12.80;;;10.53;;
15412;SDS011;7805;49.554;7.632;2023-06-10T04:28:10;11.50;;;10.27;;
15412;SDS011;7805;49.554;7.632;2023-06-10T04:30:35;12.77;;;10.37;;
15412;SDS011;7805;49.554;7.632;2023-06-10T04:33:01;11.27;;;10.33;;
15412;SDS011;7805;49.554;7.632;2023-06-10T04:35:27;11.60;;;10.50;;
15412;SDS011;7805;49.554;7.632;2023-06-10T04:37:52;11.20;;;9.70;;
15412;SDS011;7805;49.554;7.632;2023-06-10T04:40:18;11.50;;;10.40;;
15412;SDS011;7805;49.554;7.632;2023-06-10T04:42:44;10.53;;;9.53;;
15412;SDS011;7805;49.554;7.632;2023-06-10T04:45:10;21.20;;;10.90;;
15412;SDS011;7805;49.554;7.632;2023-06-10T04:47:36;11.50;;;10.40;;
15412;SDS011;7805;49.554;7.632;2023-06-10T04:50:02;11.70;;;10.50;;
15412;SDS011;7805;49.554;7.632;2023-06-10T04:52:28;11.20;;;10.20;;
15412;SDS011;7805;49.554;7.632;2023-06-10T04:54:54;10.80;;;9.90;;
15412;SDS011;7805;49.554;7.632;2023-06-10T04:57:20;10.67;;;9.77;;
15412;SDS011;7805;49.554;7.632;2023-06-10T04:59:46;11.20;;;10.20;;
15412;SDS011;7805;49.554;7.632;2023-06-10T05:02:12;10.47;;;9.53;;
15412;SDS011;7805;49.554;7.632;2023-06-10T05:04:38;10.50;;;9.60;;
15412;SDS011;7805;49.554;7.632;2023-06-10T05:07:07;11.10;;;10.10;;
15412;SDS011;7805;49.554;7.632;2023-06-10T05:09:32;10.43;;;9.63;;
15412;SDS011;7805;49.554;7.632;2023-06-10T05:11:58;10.07;;;9.17;;
15412;SDS011;7805;49.554;7.632;2023-06-10T05:14:23;10.70;;;9.80;;
15412;SDS011;7805;49.554;7.632;2023-06-10T05:16:49;12.17;;;10.20;;
15412;SDS011;7805;49.554;7.632;2023-06-10T05:19:15;12.67;;;10.03;;
15412;SDS011;7805;49.554;7.632;2023-06-10T05:21:44;10.13;;;9.23;;
15412;SDS011;7805;49.554;7.632;2023-06-10T05:24:10;10.33;;;9.33;;
15412;SDS011;7805;49.554;7.632;2023-06-10T05:26:36;9.80;;;8.80;;
15412;SDS011;7805;49.554;7.632;2023-06-10T05:29:03;10.27;;;9.27;;
15412;SDS011;7805;49.554;7.632;2023-06-10T05:31:29;9.67;;;8.87;;
15412;SDS011;7805;49.554;7.632;2023-06-10T05:33:55;9.53;;;8.60;;
15412;SDS011;7805;49.554;7.632;2023-06-10T05:36:21;10.67;;;9.17;;
15412;SDS011;7805;49.554;7.632;2023-06-10T05:38:46;9.83;;;8.83;;
15412;SDS011;7805;49.554;7.632;2023-06-10T05:41:12;10.03;;;9.23;;
15412;SDS011;7805;49.554;7.632;2023-06-10T05:43:38;10.43;;;9.43;;
15412;SDS011;7805;49.554;7.632;2023-06-10T05:46:03;11.90;;;9.67;;
15412;SDS011;7805;49.554;7.632;2023-06-10T05:48:29;9.37;;;8.33;;
15412;SDS011;7805;49.554;7.632;2023-06-10T05:50:55;10.13;;;9.23;;
15412;SDS011;7805;49.554;7.632;2023-06-10T05:53:20;10.00;;;8.97;;
15412;SDS011;7805;49.554;7.632;2023-06-10T05:55:46;9.50;;;8.50;;
15412;SDS011;7805;49.554;7.632;2023-06-10T05:58:14;9.17;;;8.37;;
15412;SDS011;7805;49.554;7.632;2023-06-10T06:00:40;9.80;;;8.93;;
15412;SDS011;7805;49.554;7.632;2023-06-10T06:03:09;9.50;;;8.70;;
15412;SDS011;7805;49.554;7.632;2023-06-10T06:05:35;9.35;;;8.65;;
15412;SDS011;7805;49.554;7.632;2023-06-10T06:08:03;10.30;;;8.55;;
15412;SDS011;7805;49.554;7.632;2023-06-10T06:10:31;9.75;;;8.90;;
15412;SDS011;7805;49.554;7.632;2023-06-10T06:12:57;9.13;;;8.43;;
15412;SDS011;7805;49.554;7.632;2023-06-10T06:15:23;8.85;;;8.15;;
15412;SDS011;7805;49.554;7.632;2023-06-10T06:17:49;10.07;;;9.18;;
15412;SDS011;7805;49.554;7.632;2023-06-10T06:20:17;9.45;;;8.52;;
15412;SDS011;7805;49.554;7.632;2023-06-10T06:22:43;9.02;;;8.23;;
15412;SDS011;7805;49.554;7.632;2023-06-10T06:25:09;9.38;;;8.68;;
15412;SDS011;7805;49.554;7.632;2023-06-10T06:27:35;9.20;;;8.25;;
15412;SDS011;7805;49.554;7.632;2023-06-10T06:30:00;9.05;;;8.23;;
15412;SDS011;7805;49.554;7.632;2023-06-10T06:32:26;9.90;;;9.10;;
15412;SDS011;7805;49.554;7.632;2023-06-10T06:34:52;9.35;;;8.55;;
15412;SDS011;7805;49.554;7.632;2023-06-10T06:37:21;8.10;;;7.50;;
15412;SDS011;7805;49.554;7.632;2023-06-10T06:39:49;8.82;;;7.97;;
15412;SDS011;7805;49.554;7.632;2023-06-10T06:42:15;9.27;;;8.38;;
15412;SDS011;7805;49.554;7.632;2023-06-10T06:44:41;8.57;;;7.88;;
15412;SDS011;7805;49.554;7.632;2023-06-10T06:47:07;8.35;;;7.65;;
15412;SDS011;7805;49.554;7.632;2023-06-10T06:49:32;8.43;;;7.70;;
15412;SDS011;7805;49.554;7.632;2023-06-10T06:52:00;8.43;;;7.82;;
15412;SDS011;7805;49.554;7.632;2023-06-10T06:54:26;9.52;;;7.95;;
15412;SDS011;7805;49.554;7.632;2023-06-10T06:56:52;8.05;;;7.35;;
15412;SDS011;7805;49.554;7.632;2023-06-10T06:59:17;7.93;;;7.22;;
15412;SDS011;7805;49.554;7.632;2023-06-10T07:01:44;8.85;;;8.07;;
15412;SDS011;7805;49.554;7.632;2023-06-10T07:04:10;8.32;;;7.53;;
15412;SDS011;7805;49.554;7.632;2023-06-10T07:06:36;7.38;;;6.55;;
15412;SDS011;7805;49.554;7.632;2023-06-10T07:09:03;7.60;;;6.90;;
15412;SDS011;7805;49.554;7.632;2023-06-10T07:11:29;8.15;;;7.00;;
15412;SDS011;7805;49.554;7.632;2023-06-10T07:13:55;8.10;;;7.30;;
15412;SDS011;7805;49.554;7.632;2023-06-10T07:16:21;6.88;;;6.20;;
15412;SDS011;7805;49.554;7.632;2023-06-10T07:18:46;7.47;;;6.88;;
15412;SDS011;7805;49.554;7.632;2023-06-10T07:21:12;7.60;;;6.90;;
15412;SDS011;7805;49.554;7.632;2023-06-10T07:23:41;6.88;;;6.28;;
15412;SDS011;7805;49.554;7.632;2023-06-10T07:26:07;7.55;;;6.85;;
15412;SDS011;7805;49.554;7.632;2023-06-10T07:28:32;7.15;;;6.53;;
15412;SDS011;7805;49.554;7.632;2023-06-10T07:30:58;7.38;;;6.40;;
15412;SDS011;7805;49.554;7.632;2023-06-10T07:33:24;7.05;;;6.35;;
15412;SDS011;7805;49.554;7.632;2023-06-10T07:35:49;8.45;;;6.75;;
15412;SDS011;7805;49.554;7.632;2023-06-10T07:38:17;7.53;;;6.82;;
15412;SDS011;7805;49.554;7.632;2023-06-10T07:40:42;6.85;;;6.15;;
15412;SDS011;7805;49.554;7.632;2023-06-10T07:43:08;7.13;;;6.47;;
15412;SDS011;7805;49.554;7.632;2023-06-10T07:45:33;7.45;;;6.57;;
15412;SDS011;7805;49.554;7.632;2023-06-10T07:47:59;6.57;;;5.75;;
15412;SDS011;7805;49.554;7.632;2023-06-10T07:50:25;6.13;;;5.28;;
15412;SDS011;7805;49.554;7.632;2023-06-10T07:52:50;6.05;;;5.55;;
15412;SDS011;7805;49.554;7.632;2023-06-10T07:55:16;5.15;;;4.75;;
15412;SDS011;7805;49.554;7.632;2023-06-10T07:57:41;5.30;;;4.78;;
15412;SDS011;7805;49.554;7.632;2023-06-10T08:00:07;4.70;;;4.30;;
15412;SDS011;7805;49.554;7.632;2023-06-10T08:02:33;4.13;;;3.92;;
15412;SDS011;7805;49.554;7.632;2023-06-10T08:04:59;4.93;;;3.83;;
15412;SDS011;7805;49.554;7.632;2023-06-10T08:07:24;5.07;;;4.32;;
15412;SDS011;7805;49.554;7.632;2023-06-10T08:09:50;5.65;;;3.85;;
15412;SDS011;7805;49.554;7.632;2023-06-10T08:12:16;4.10;;;3.80;;
15412;SDS011;7805;49.554;7.632;2023-06-10T08:14:41;5.00;;;4.50;;
15412;SDS011;7805;49.554;7.632;2023-06-10T08:17:07;4.97;;;4.53;;
15412;SDS011;7805;49.554;7.632;2023-06-10T08:19:32;4.47;;;4.15;;
15412;SDS011;7805;49.554;7.632;2023-06-10T08:21:58;4.32;;;4.03;;
15412;SDS011;7805;49.554;7.632;2023-06-10T08:24:24;4.00;;;3.70;;
15412;SDS011;7805;49.554;7.632;2023-06-10T08:29:18;3.92;;;3.63;;
15412;SDS011;7805;49.554;7.632;2023-06-10T08:31:44;4.60;;;4.10;;
15412;SDS011;7805;49.554;7.632;2023-06-10T08:34:10;4.30;;;4.00;;
15412;SDS011;7805;49.554;7.632;2023-06-10T08:36:36;4.53;;;4.13;;
15412;SDS011;7805;49.554;7.632;2023-06-10T08:39:02;4.97;;;4.57;;
15412;SDS011;7805;49.554;7.632;2023-06-10T08:41:28;4.60;;;4.20;;
15412;SDS011;7805;49.554;7.632;2023-06-10T08:44:16;5.53;;;4.40;;
15412;SDS011;7805;49.554;7.632;2023-06-10T08:46:45;4.82;;;4.43;;
15412;SDS011;7805;49.554;7.632;2023-06-10T08:49:10;6.72;;;5.20;;
15412;SDS011;7805;49.554;7.632;2023-06-10T08:51:42;4.80;;;4.40;;
15412;SDS011;7805;49.554;7.632;2023-06-10T08:54:17;4.72;;;4.32;;
15412;SDS011;7805;49.554;7.632;2023-06-10T08:56:45;5.85;;;4.28;;
15412;SDS011;7805;49.554;7.632;2023-06-10T08:59:15;4.75;;;4.35;;
15412;SDS011;7805;49.554;7.632;2023-06-10T09:01:41;5.18;;;4.78;;
15412;SDS011;7805;49.554;7.632;2023-06-10T09:04:08;4.88;;;4.47;;
15412;SDS011;7805;49.554;7.632;2023-06-10T09:06:35;5.43;;;5.03;;
15412;SDS011;7805;49.554;7.632;2023-06-10T09:09:01;4.80;;;4.18;;
15412;SDS011;7805;49.554;7.632;2023-06-10T09:11:27;4.97;;;4.60;;
15412;SDS011;7805;49.554;7.632;2023-06-10T09:13:53;4.72;;;4.20;;
15412;SDS011;7805;49.554;7.632;2023-06-10T09:16:19;6.80;;;4.82;;
15412;SDS011;7805;49.554;7.632;2023-06-10T09:18:44;5.03;;;4.65;;
15412;SDS011;7805;49.554;7.632;2023-06-10T09:21:10;5.68;;;5.28;;
15412;SDS011;7805;49.554;7.632;2023-06-10T09:23:36;5.00;;;4.70;;
15412;SDS011;7805;49.554;7.632;2023-06-10T09:26:02;5.43;;;4.30;;
15412;SDS011;7805;49.554;7.632;2023-06-10T09:28:33;5.18;;;4.78;;
15412;SDS011;7805;49.554;7.632;2023-06-10T09:31:04;5.22;;;4.68;;
15412;SDS011;7805;49.554;7.632;2023-06-10T09:33:32;5.10;;;4.60;;
15412;SDS011;7805;49.554;7.632;2023-06-10T09:35:59;5.88;;;5.38;;
15412;SDS011;7805;49.554;7.632;2023-06-10T09:38:30;6.03;;;4.82;;
15412;SDS011;7805;49.554;7.632;2023-06-10T09:40:57;5.55;;;5.10;;
15412;SDS011;7805;49.554;7.632;2023-06-10T09:43:24;5.40;;;4.50;;
15412;SDS011;7805;49.554;7.632;2023-06-10T09:46:07;5.20;;;4.80;;
15412;SDS011;7805;49.554;7.632;2023-06-10T09:48:40;4.65;;;4.35;;
15412;SDS011;7805;49.554;7.632;2023-06-10T09:51:08;5.50;;;5.10;;
15412;SDS011;7805;49.554;7.632;2023-06-10T09:53:35;4.90;;;4.45;;
15412;SDS011;7805;49.554;7.632;2023-06-10T09:56:00;6.97;;;4.40;;
15412;SDS011;7805;49.554;7.632;2023-06-10T09:58:36;5.85;;;5.00;;
15412;SDS011;7805;49.554;7.632;2023-06-10T10:01:08;4.63;;;4.22;;
15412;SDS011;7805;49.554;7.632;2023-06-10T10:03:48;4.85;;;4.40;;
15412;SDS011;7805;49.554;7.632;2023-06-10T10:06:15;5.18;;;4.10;;
15412;SDS011;7805;49.554;7.632;2023-06-10T10:08:42;5.05;;;4.63;;
15412;SDS011;7805;49.554;7.632;2023-06-10T10:11:08;4.38;;;4.07;;
15412;SDS011;7805;49.554;7.632;2023-06-10T10:13:34;5.25;;;4.35;;
15412;SDS011;7805;49.554;7.632;2023-06-10T10:16:01;6.88;;;4.65;;
15412;SDS011;7805;49.554;7.632;2023-06-10T10:18:31;4.60;;;3.90;;
15412;SDS011;7805;49.554;7.632;2023-06-10T10:20:59;4.93;;;3.90;;
15412;SDS011;7805;49.554;7.632;2023-06-10T10:23:31;4.18;;;3.90;;
15412;SDS011;7805;49.554;7.632;2023-06-10T10:26:04;4.30;;;3.78;;
15412;SDS011;7805;49.554;7.632;2023-06-10T10:28:37;4.47;;;4.07;;
15412;SDS011;7805;49.554;7.632;2023-06-10T10:31:28;4.40;;;4.03;;
15412;SDS011;7805;49.554;7.632;2023-06-10T10:33:58;4.75;;;4.35;;
15412;SDS011;7805;49.554;7.632;2023-06-10T10:36:25;5.53;;;4.13;;
15412;SDS011;7805;49.554;7.632;2023-06-10T10:38:51;4.13;;;3.83;;
15412;SDS011;7805;49.554;7.632;2023-06-10T10:41:18;12.05;;;4.32;;
15412;SDS011;7805;49.554;7.632;2023-06-10T10:43:45;4.78;;;4.38;;
15412;SDS011;7805;49.554;7.632;2023-06-10T10:46:16;4.50;;;4.10;;
15412;SDS011;7805;49.554;7.632;2023-06-10T10:48:42;4.07;;;3.83;;
15412;SDS011;7805;49.554;7.632;2023-06-10T10:51:09;5.45;;;5.05;;
15412;SDS011;7805;49.554;7.632;2023-06-10T10:53:38;4.53;;;4.25;;
15412;SDS011;7805;49.554;7.632;2023-06-10T10:56:09;6.20;;;3.90;;
15412;SDS011;7805;49.554;7.632;2023-06-10T10:58:39;4.35;;;4.05;;
15412;SDS011;7805;49.554;7.632;2023-06-10T11:01:11;4.68;;;4.28;;
15412;SDS011;7805;49.554;7.632;2023-06-10T11:03:43;4.57;;;4.28;;
15412;SDS011;7805;49.554;7.632;2023-06-10T11:06:12;8.07;;;4.43;;
15412;SDS011;7805;49.554;7.632;2023-06-10T11:11:25;4.85;;;4.38;;
15412;SDS011;7805;49.554;7.632;2023-06-10T11:14:05;4.43;;;4.03;;
15412;SDS011;7805;49.554;7.632;2023-06-10T11:16:43;8.20;;;4.47;;
15412;SDS011;7805;49.554;7.632;2023-06-10T11:19:09;4.80;;;4.40;;
15412;SDS011;7805;49.554;7.632;2023-06-10T11:22:20;4.65;;;4.25;;
15412;SDS011;7805;49.554;7.632;2023-06-10T11:24:27;5.20;;;4.70;;
15412;SDS011;7805;49.554;7.632;2023-06-10T11:27:15;4.43;;;4.13;;
15412;SDS011;7805;49.554;7.632;2023-06-10T11:32:29;4.43;;;4.03;;
15412;SDS011;7805;49.554;7.632;2023-06-10T11:34:56;4.28;;;3.88;;
15412;SDS011;7805;49.554;7.632;2023-06-10T11:37:25;5.97;;;4.53;;
15412;SDS011;7805;49.554;7.632;2023-06-10T11:39:55;4.78;;;4.35;;
15412;SDS011;7805;49.554;7.632;2023-06-10T11:42:21;4.60;;;4.30;;
15412;SDS011;7805;49.554;7.632;2023-06-10T11:44:50;4.40;;;4.10;;
15412;SDS011;7805;49.554;7.632;2023-06-10T11:47:17;4.45;;;4.05;;
15412;SDS011;7805;49.554;7.632;2023-06-10T11:49:44;4.70;;;4.30;;
15412;SDS011;7805;49.554;7.632;2023-06-10T11:52:10;4.20;;;3.90;;
15412;SDS011;7805;49.554;7.632;2023-06-10T11:54:36;4.32;;;4.03;;
15412;SDS011;7805;49.554;7.632;2023-06-10T11:57:02;4.85;;;4.45;;
15412;SDS011;7805;49.554;7.632;2023-06-10T11:59:28;5.25;;;4.60;;
15412;SDS011;7805;49.554;7.632;2023-06-10T12:01:55;6.03;;;4.80;;
15412;SDS011;7805;49.554;7.632;2023-06-10T12:04:21;5.18;;;4.70;;
15412;SDS011;7805;49.554;7.632;2023-06-10T12:06:51;5.00;;;4.50;;
15412;SDS011;7805;49.554;7.632;2023-06-10T12:20:02;5.32;;;4.82;;
15412;SDS011;7805;49.554;7.632;2023-06-10T12:22:39;5.40;;;4.95;;
15412;SDS011;7805;49.554;7.632;2023-06-10T12:25:06;7.00;;;4.82;;
15412;SDS011;7805;49.554;7.632;2023-06-10T12:27:33;5.65;;;5.20;;
15412;SDS011;7805;49.554;7.632;2023-06-10T12:30:00;5.57;;;5.00;;
15412;SDS011;7805;49.554;7.632;2023-06-10T12:32:35;5.40;;;4.88;;
15412;SDS011;7805;49.554;7.632;2023-06-10T12:35:08;5.63;;;5.20;;
15412;SDS011;7805;49.554;7.632;2023-06-10T12:37:35;5.97;;;5.05;;
15412;SDS011;7805;49.554;7.632;2023-06-10T12:40:02;5.38;;;4.97;;
15412;SDS011;7805;49.554;7.632;2023-06-10T12:42:32;5.07;;;4.72;;
15412;SDS011;7805;49.554;7.632;2023-06-10T12:45:01;5.45;;;4.95;;
15412;SDS011;7805;49.554;7.632;2023-06-10T12:47:31;5.55;;;5.07;;
15412;SDS011;7805;49.554;7.632;2023-06-10T12:49:59;5.60;;;5.05;;
15412;SDS011;7805;49.554;7.632;2023-06-10T12:52:25;4.47;;;4.15;;
15412;SDS011;7805;49.554;7.632;2023-06-10T12:54:51;4.97;;;4.45;;
15412;SDS011;7805;49.554;7.632;2023-06-10T12:57:17;5.47;;;4.57;;
15412;SDS011;7805;49.554;7.632;2023-06-10T12:59:43;6.75;;;5.43;;
15412;SDS011;7805;49.554;7.632;2023-06-10T13:02:15;5.55;;;5.00;;
15412;SDS011;7805;49.554;7.632;2023-06-10T13:04:43;7.22;;;5.43;;
15412;SDS011;7805;49.554;7.632;2023-06-10T13:07:09;5.38;;;4.78;;
15412;SDS011;7805;49.554;7.632;2023-06-10T13:09:35;4.82;;;4.50;;
15412;SDS011;7805;49.554;7.632;2023-06-10T13:12:01;5.40;;;4.88;;
15412;SDS011;7805;49.554;7.632;2023-06-10T13:14:27;6.55;;;4.63;;
15412;SDS011;7805;49.554;7.632;2023-06-10T13:16:53;5.35;;;4.95;;
15412;SDS011;7805;49.554;7.632;2023-06-10T13:19:20;5.53;;;5.07;;
15412;SDS011;7805;49.554;7.632;2023-06-10T13:21:46;5.82;;;5.25;;
15412;SDS011;7805;49.554;7.632;2023-06-10T13:24:12;5.80;;;5.40;;
15412;SDS011;7805;49.554;7.632;2023-06-10T13:26:38;5.28;;;4.78;;
15412;SDS011;7805;49.554;7.632;2023-06-10T13:29:04;4.95;;;4.65;;
15412;SDS011;7805;49.554;7.632;2023-06-10T13:31:30;7.22;;;5.53;;
15412;SDS011;7805;49.554;7.632;2023-06-10T13:33:57;5.72;;;4.50;;
15412;SDS011;7805;49.554;7.632;2023-06-10T13:36:23;4.97;;;4.68;;
15412;SDS011;7805;49.554;7.632;2023-06-10T13:38:48;5.22;;;4.72;;
15412;SDS011;7805;49.554;7.632;2023-06-10T13:41:14;4.88;;;4.57;;
15412;SDS011;7805;49.554;7.632;2023-06-10T13:43:40;4.65;;;4.15;;
15412;SDS011;7805;49.554;7.632;2023-06-10T13:46:06;5.18;;;4.78;;
15412;SDS011;7805;49.554;7.632;2023-06-10T13:48:32;6.95;;;6.32;;
15412;SDS011;7805;49.554;7.632;2023-06-10T13:50:58;5.60;;;5.20;;
15412;SDS011;7805;49.554;7.632;2023-06-10T13:53:24;4.75;;;4.35;;
15412;SDS011;7805;49.554;7.632;2023-06-10T13:55:50;3.88;;;3.65;;
15412;SDS011;7805;49.554;7.632;2023-06-10T13:58:15;4.00;;;3.80;;
15412;SDS011;7805;49.554;7.632;2023-06-10T14:00:41;4.75;;;4.35;;
15412;SDS011;7805;49.554;7.632;2023-06-10T14:03:06;3.97;;;3.60;;
15412;SDS011;7805;49.554;7.632;2023-06-10T14:05:32;4.47;;;3.80;;
15412;SDS011;7805;49.554;7.632;2023-06-10T14:07:58;4.65;;;4.28;;
15412;SDS011;7805;49.554;7.632;2023-06-10T14:10:24;4.97;;;4.05;;
15412;SDS011;7805;49.554;7.632;2023-06-10T14:12:49;4.80;;;4.50;;
15412;SDS011;7805;49.554;7.632;2023-06-10T14:15:16;4.60;;;4.20;;
15412;SDS011;7805;49.554;7.632;2023-06-10T14:17:42;4.05;;;3.67;;
15412;SDS011;7805;49.554;7.632;2023-06-10T14:20:07;3.95;;;3.60;;
15412;SDS011;7805;49.554;7.632;2023-06-10T14:22:33;4.25;;;3.95;;
15412;SDS011;7805;49.554;7.632;2023-06-10T14:24:59;4.55;;;3.70;;
15412;SDS011;7805;49.554;7.632;2023-06-10T14:27:24;3.30;;;3.10;;
15412;SDS011;7805;49.554;7.632;2023-06-10T14:29:50;4.78;;;4.30;;
15412;SDS011;7805;49.554;7.632;2023-06-10T14:32:16;3.80;;;3.60;;
15412;SDS011;7805;49.554;7.632;2023-06-10T14:34:41;5.22;;;4.82;;
15412;SDS011;7805;49.554;7.632;2023-06-10T14:37:09;4.55;;;4.18;;
15412;SDS011;7805;49.554;7.632;2023-06-10T14:39:35;3.70;;;3.40;;
15412;SDS011;7805;49.554;7.632;2023-06-10T14:42:01;5.00;;;3.42;;
15412;SDS011;7805;49.554;7.632;2023-06-10T14:44:27;3.90;;;3.60;;
15412;SDS011;7805;49.554;7.632;2023-06-10T14:46:52;4.22;;;3.38;;
15412;SDS011;7805;49.554;7.632;2023-06-10T14:49:18;3.92;;;3.70;;
15412;SDS011;7805;49.554;7.632;2023-06-10T14:51:43;3.95;;;3.65;;
15412;SDS011;7805;49.554;7.632;2023-06-10T14:54:09;4.00;;;3.70;;
15412;SDS011;7805;49.554;7.632;2023-06-10T14:56:35;4.47;;;3.80;;
15412;SDS011;7805;49.554;7.632;2023-06-10T14:59:01;3.33;;;3.03;;
15412;SDS011;7805;49.554;7.632;2023-06-10T15:01:26;3.50;;;3.30;;
15412;SDS011;7805;49.554;7.632;2023-06-10T15:03:52;4.22;;;3.92;;
15412;SDS011;7805;49.554;7.632;2023-06-10T15:06:17;5.07;;;4.68;;
15412;SDS011;7805;49.554;7.632;2023-06-10T15:08:45;5.43;;;4.40;;
15412;SDS011;7805;49.554;7.632;2023-06-10T15:11:13;4.80;;;3.83;;
15412;SDS011;7805;49.554;7.632;2023-06-10T15:13:39;4.40;;;4.00;;
15412;SDS011;7805;49.554;7.632;2023-06-10T15:16:05;4.10;;;3.70;;
15412;SDS011;7805;49.554;7.632;2023-06-10T15:18:31;4.38;;;3.90;;